Terminal Aerodrome Forecast
Issued by NWS

Home | Current Version | Previous Version | Text Only | Print | Product List | Glossary On
Versions: 1 2 3 4 5 6 7 8 9 10 11 12
429
FTAK31 PAJN 292321
TAFAPG
TAF
PAPG 292321Z 3000/3024 07006KT P6SM -SHRA SCT008 BKN028 OVC035
     FM300600 VRB03KT P6SM -SHRA BKN040 OVC060
     FM301000 VRB02KT 3SM BR VCSH FEW004 BKN050 OVC070
     FM301400 06004KT 2SM BR VCSH SCT004 BKN050 OVC070
     FM302000 05003KT P6SM VCSH SCT010 OVC050
      AMD LTD TO CLD VIS AND WIND 3006/3015=

USA.gov is the U.S. government's official web portal to all federal, state and local government web resources and services.